createdAt,value
2023-05-05T00:00:01.763Z,2585.7960000000003
2023-05-05T00:05:01.741Z,2671.0460000000003
2023-05-05T00:10:01.738Z,2605.992
2023-05-05T00:15:01.859Z,2770.706
2023-05-05T00:20:01.792Z,3167.65
2023-05-05T00:25:01.760Z,1230.651
2023-05-05T00:30:01.735Z,538.467
2023-05-05T00:35:01.767Z,2878.621
2023-05-05T00:40:01.812Z,7792.064
2023-05-05T00:45:01.835Z,7874.719
2023-05-05T00:50:01.808Z,7953.919
2023-05-05T00:55:01.812Z,7236.16
2023-05-05T01:00:01.849Z,6492.655
2023-05-05T01:05:01.815Z,4373.903
2023-05-05T01:10:15.535Z,518.941
2023-05-05T01:15:01.814Z,562.503
2023-05-05T01:20:01.807Z,586.0600000000001
2023-05-05T01:25:01.828Z,494.796
2023-05-05T01:30:01.842Z,555.076
2023-05-05T01:35:01.843Z,812.263
2023-05-05T01:40:01.866Z,2583.648
2023-05-05T01:45:01.848Z,2482.756
2023-05-05T01:50:01.857Z,2598.248
2023-05-05T01:55:01.908Z,2562.563
2023-05-05T02:00:01.812Z,2811.248
2023-05-05T02:05:01.877Z,4982.651
2023-05-05T02:10:01.823Z,5094.326
2023-05-05T02:15:01.837Z,4644.8240000000005
2023-05-05T02:20:01.873Z,4350.088
2023-05-05T02:25:01.917Z,3897.577
2023-05-05T02:30:01.874Z,3593.956
2023-05-05T02:35:01.945Z,1248.877
2023-05-05T02:40:01.921Z,500.10200000000003
2023-05-05T02:45:01.922Z,516.2090000000001
2023-05-05T02:50:01.862Z,546.755
2023-05-05T02:55:01.914Z,493.39
2023-05-05T03:00:01.981Z,552.367
2023-05-05T03:05:01.903Z,2482.736
2023-05-05T03:10:02.240Z,2617.3830000000003
2023-05-05T03:15:01.939Z,2674.53
2023-05-05T03:20:04.356Z,2639.137
2023-05-05T03:25:02.013Z,3043.614
2023-05-05T03:30:01.980Z,1683.455
2023-05-05T03:35:01.983Z,556.573
2023-05-05T03:40:02.020Z,488.546
2023-05-05T03:45:01.996Z,536.28
2023-05-05T03:50:02.063Z,672.863
2023-05-05T03:55:02.068Z,621.65
2023-05-05T04:00:02.130Z,657.009
2023-05-05T04:05:02.141Z,433.119
2023-05-05T04:10:02.094Z,180.735
2023-05-05T04:15:02.137Z,167.523
2023-05-05T04:20:02.132Z,156.105
2023-05-05T04:25:02.119Z,157.762
2023-05-05T04:30:02.100Z,191.72400000000002
2023-05-05T04:35:02.176Z,2208.5080000000003
2023-05-05T04:40:02.160Z,2673.149
2023-05-05T04:45:01.990Z,2611.817
2023-05-05T04:50:02.013Z,2632.146
2023-05-05T04:55:02.068Z,3202.339
2023-05-05T05:00:02.005Z,533.01
2023-05-05T05:05:02.023Z,578.518
2023-05-05T05:10:01.988Z,491.738
2023-05-05T05:15:02.093Z,833.91
2023-05-05T05:20:02.042Z,607.41
2023-05-05T05:25:02.212Z,330.459
2023-05-05T05:30:02.005Z,338.06
2023-05-05T05:35:02.116Z,262.456
2023-05-05T05:40:02.132Z,243.052
2023-05-05T05:45:02.093Z,349.76
2023-05-05T05:50:02.071Z,562.374
2023-05-05T05:55:02.018Z,534.942
2023-05-05T06:00:02.371Z,532.759
2023-05-05T06:05:02.016Z,701.884
2023-05-05T06:10:11.212Z,388.074
2023-05-05T06:15:02.064Z,300.911
2023-05-05T06:20:02.112Z,201.095
2023-05-05T06:25:02.049Z,180.585
2023-05-05T06:30:02.105Z,167.671
2023-05-05T06:35:02.076Z,167.19400000000002
2023-05-05T06:40:02.112Z,168.823
2023-05-05T06:45:02.150Z,273.826
2023-05-05T06:50:02.109Z,1023.264
2023-05-05T06:55:02.222Z,2629.139
2023-05-05T07:00:02.096Z,2647.084
2023-05-05T07:05:02.106Z,3030.532
2023-05-05T07:10:02.199Z,1644.945
2023-05-05T07:15:09.527Z,164.856
2023-05-05T07:20:02.133Z,176.716
2023-05-05T07:25:02.187Z,192.775
2023-05-05T07:30:03.327Z,189.137
2023-05-05T07:35:02.128Z,262.119
2023-05-05T07:40:02.229Z,308.027
2023-05-05T07:45:02.151Z,572.015
2023-05-05T07:50:02.249Z,648.248
2023-05-05T07:55:02.153Z,572.816
2023-05-05T08:00:02.117Z,664.356
2023-05-05T08:05:02.170Z,183.673
2023-05-05T08:10:02.194Z,201.661
2023-05-05T08:15:02.213Z,215.023
2023-05-05T08:20:02.175Z,265.13
2023-05-05T08:25:02.177Z,351.106
2023-05-05T08:30:02.205Z,338.653
2023-05-05T08:35:02.204Z,567.626
2023-05-05T08:40:02.238Z,1268.847
2023-05-05T08:45:02.301Z,1130.685
2023-05-05T08:50:02.247Z,1129.381
2023-05-05T08:55:02.218Z,1206.6870000000001
2023-05-05T09:00:02.253Z,1226.641
2023-05-05T09:05:02.221Z,1210.115
2023-05-05T09:10:02.284Z,1357.988
2023-05-05T09:15:02.243Z,1360.953
2023-05-05T09:20:02.304Z,1377.633
2023-05-05T09:25:02.521Z,1369.554
2023-05-05T09:30:02.368Z,1296.935
2023-05-05T09:35:02.369Z,1292.223
2023-05-05T09:40:02.450Z,1342.7640000000001
2023-05-05T09:45:02.492Z,1314.7740000000001
2023-05-05T09:50:02.382Z,1327.359
2023-05-05T09:55:02.262Z,1483.201
2023-05-05T10:00:02.442Z,1438.2540000000001
2023-05-05T10:05:02.601Z,1393.555
2023-05-05T10:10:02.362Z,1294.707
2023-05-05T10:15:02.279Z,1265.407
2023-05-05T10:20:02.246Z,1265.515
2023-05-05T10:25:02.284Z,1323.7930000000001
2023-05-05T10:30:02.278Z,1323.786
2023-05-05T10:35:02.286Z,1279.92
2023-05-05T10:40:02.345Z,1422.111
2023-05-05T10:45:02.344Z,1381.256
2023-05-05T10:50:02.363Z,1356.352
2023-05-05T10:55:02.327Z,1167.857
2023-05-05T11:00:02.297Z,534.482
2023-05-05T11:05:02.423Z,186.556
2023-05-05T11:10:02.409Z,198.091
2023-05-05T11:15:02.459Z,184.209
2023-05-05T11:20:02.474Z,184.955
2023-05-05T11:25:02.492Z,318.85200000000003
2023-05-05T11:30:02.376Z,295.793
2023-05-05T11:35:02.318Z,306.725
2023-05-05T11:40:02.361Z,231.156
2023-05-05T11:45:02.401Z,548.8580000000001
2023-05-05T11:50:02.358Z,618.644
2023-05-05T11:55:02.395Z,2252.059
2023-05-05T12:00:02.353Z,2494.84
2023-05-05T12:05:02.393Z,2733.85
2023-05-05T12:10:02.482Z,2837.335
2023-05-05T12:15:02.429Z,2496.279
2023-05-05T12:20:02.402Z,317.344
2023-05-05T12:25:02.427Z,230.76500000000001
2023-05-05T12:30:02.356Z,230.018
2023-05-05T12:35:02.415Z,228.92600000000002
2023-05-05T12:40:02.498Z,220.939
2023-05-05T12:45:02.527Z,218.79
2023-05-05T12:50:02.744Z,384.177
2023-05-05T12:55:02.758Z,685.25
2023-05-05T13:00:02.572Z,667.346
2023-05-05T13:05:02.384Z,645.49
2023-05-05T13:10:02.598Z,616.836
2023-05-05T13:15:02.470Z,547.359
2023-05-05T13:20:02.464Z,541.477
2023-05-05T13:25:02.428Z,582.085
2023-05-05T13:30:02.482Z,256.165
2023-05-05T13:35:02.510Z,248.317
2023-05-05T13:40:02.425Z,323.878
2023-05-05T13:45:02.410Z,378.939
2023-05-05T13:50:02.460Z,337.335
2023-05-05T13:55:02.510Z,284.533
2023-05-05T14:00:02.479Z,215.566
2023-05-05T14:05:02.515Z,305.377
2023-05-05T14:10:02.536Z,607.964
2023-05-05T14:15:02.569Z,630.349
2023-05-05T14:20:02.711Z,518.66
2023-05-05T14:25:02.752Z,610.6320000000001
2023-05-05T14:30:02.665Z,670.5790000000001
2023-05-05T14:35:02.458Z,371.70300000000003
2023-05-05T14:40:04.383Z,339.87
2023-05-05T14:45:02.485Z,459.661
2023-05-05T14:50:02.572Z,598.19
2023-05-05T14:55:02.504Z,535.198
2023-05-05T15:00:02.542Z,555.1750000000001
2023-05-05T15:05:02.474Z,339.661
2023-05-05T15:10:02.535Z,336.15500000000003
2023-05-05T15:15:02.628Z,474.678
2023-05-05T15:20:02.511Z,456.161
2023-05-05T15:25:02.534Z,446.512
2023-05-05T15:30:02.556Z,345.25
2023-05-05T15:35:02.575Z,1494.43
2023-05-05T15:40:02.749Z,2579.093
2023-05-05T15:45:02.680Z,2700.107
2023-05-05T15:50:02.857Z,3172.808
2023-05-05T15:55:02.708Z,2639.781
2023-05-05T16:00:02.819Z,685.2570000000001
2023-05-05T16:05:02.697Z,416.372
2023-05-05T16:10:02.617Z,422.879
2023-05-05T16:15:02.630Z,316.154
2023-05-05T16:20:02.576Z,669.129
2023-05-05T16:25:02.605Z,2348.802
2023-05-05T16:30:03.104Z,5191.845
2023-05-05T16:35:02.632Z,2787.5280000000002
2023-05-05T16:40:02.611Z,3041.477
2023-05-05T16:45:02.646Z,2244.6620000000003
2023-05-05T16:50:02.593Z,989.384
2023-05-05T16:55:02.631Z,997.094
2023-05-05T17:00:02.573Z,512.844
2023-05-05T17:05:02.713Z,295.154
2023-05-05T17:10:02.750Z,294.807
2023-05-05T17:15:02.674Z,292.76300000000003
2023-05-05T17:20:02.623Z,292.488
2023-05-05T17:25:02.650Z,285.562
2023-05-05T17:30:02.636Z,338.745
2023-05-05T17:35:02.689Z,392.666
2023-05-05T17:40:02.771Z,557.9110000000001
2023-05-05T17:45:02.749Z,2341.781
2023-05-05T17:50:02.847Z,2563.8830000000003
2023-05-05T17:55:02.817Z,2697.033
2023-05-05T18:00:02.849Z,2981.2980000000002
2023-05-05T18:05:02.802Z,2960.308
2023-05-05T18:10:02.732Z,3376.985
2023-05-05T18:15:02.706Z,1572.782
2023-05-05T18:20:02.710Z,840.5840000000001
2023-05-05T18:25:02.690Z,886.7520000000001
2023-05-05T18:30:02.780Z,558.297
2023-05-05T18:35:02.747Z,396.07800000000003
2023-05-05T18:40:02.756Z,405.056
2023-05-05T18:45:02.738Z,396.89300000000003
2023-05-05T18:50:02.764Z,385.821
2023-05-05T18:55:02.731Z,389.79200000000003
2023-05-05T19:00:02.707Z,611.091
2023-05-05T19:05:02.916Z,652.97
2023-05-05T19:10:02.876Z,948.426
2023-05-05T19:15:02.764Z,935.963
2023-05-05T19:20:02.766Z,820.117
2023-05-05T19:25:02.746Z,999.5980000000001
2023-05-05T19:30:02.758Z,2731.929
2023-05-05T19:35:02.768Z,3044.782
2023-05-05T19:40:02.828Z,3007.409
2023-05-05T19:45:02.863Z,2857.809
2023-05-05T19:50:03.067Z,2987.512
2023-05-05T19:55:02.842Z,2261.605
2023-05-05T20:00:02.965Z,542.311
2023-05-05T20:05:03.048Z,478.838
2023-05-05T20:10:02.982Z,456.54
2023-05-05T20:15:02.778Z,794.962
2023-05-05T20:20:02.755Z,996.993
2023-05-05T20:25:02.794Z,814.857
2023-05-05T20:30:02.863Z,1375.396
2023-05-05T20:35:02.754Z,3013.17
2023-05-05T20:40:02.847Z,2199.147
2023-05-05T20:45:02.791Z,829.203
2023-05-05T20:50:02.833Z,500.956
2023-05-05T20:55:02.810Z,394.544
2023-05-05T21:00:02.909Z,385.235
2023-05-05T21:05:02.825Z,1390.185
2023-05-05T21:10:02.877Z,2365.547
2023-05-05T21:15:02.874Z,2383.391
2023-05-05T21:20:02.874Z,2337.4120000000003
2023-05-05T21:25:02.859Z,3032.457
2023-05-05T21:30:02.974Z,3385.954
2023-05-05T21:35:02.838Z,2416.093
2023-05-05T21:40:02.934Z,758.121
2023-05-05T21:45:02.872Z,453.822
2023-05-05T21:50:02.908Z,368.866
2023-05-05T21:55:02.913Z,374.374
2023-05-05T22:00:02.869Z,375.236
2023-05-05T22:05:02.870Z,376.254
2023-05-05T22:10:03.086Z,458.16
2023-05-05T22:15:03.044Z,487.782
2023-05-05T22:20:03.047Z,469.517
2023-05-05T22:25:02.897Z,685.701
2023-05-05T22:30:02.918Z,2618.831
2023-05-05T22:35:02.995Z,4417.694
2023-05-05T22:40:02.936Z,4911.122
2023-05-05T22:45:02.938Z,4685.528
2023-05-05T22:50:02.956Z,4429.819
2023-05-05T22:55:02.942Z,1429.112
2023-05-05T23:00:02.943Z,432.349
2023-05-05T23:05:02.914Z,4859.649
2023-05-05T23:10:02.993Z,5027.707
2023-05-05T23:15:03.053Z,4946.983
2023-05-05T23:20:02.935Z,4922.358
2023-05-05T23:25:03.049Z,5128.709
2023-05-05T23:30:03.100Z,5282.309
2023-05-05T23:35:03.104Z,5119.549
2023-05-05T23:40:02.961Z,5793.847
2023-05-05T23:45:02.992Z,4939.1810000000005
2023-05-05T23:50:03.073Z,6400.262
2023-05-05T23:55:03.119Z,6858.738
